Time;durP1;ratioP1;P1;durP2;ratioP2;P2;SDS_P1;SDS_P2;PMS_P1;PMS_P2;Temp;Humidity;BMP_temperature;BMP_pressure;BME280_temperature;BME280_humidity;BME280_pressure;Samples;Min_cycle;Max_cycle;Signal;HPM_P1;HPM_P2
2022/09/10 00:00:47;;;;;;;4.53;4.13;;;24.60;54.10;;;;;;4979989;28;20469;-81
2022/09/10 00:03:15;;;;;;;5.60;4.20;;;24.60;54.20;;;;;;4979624;28;20457;-81
2022/09/10 00:05:45;;;;;;;5.27;4.77;;;24.60;54.20;;;;;;4980001;28;20469;-81
2022/09/10 00:08:13;;;;;;;7.37;5.30;;;24.50;54.20;;;;;;4979545;28;20453;-81
2022/09/10 00:10:41;;;;;;;6.43;5.40;;;24.50;54.20;;;;;;4980045;28;20413;-81
2022/09/10 00:13:09;;;;;;;6.37;5.57;;;24.50;54.40;;;;;;4979593;28;20437;-80
2022/09/10 00:15:39;;;;;;;5.70;5.20;;;24.50;54.20;;;;;;4979602;28;20458;-80
2022/09/10 00:18:07;;;;;;;5.30;4.80;;;24.50;54.20;;;;;;4979697;28;20458;-80
2022/09/10 00:20:35;;;;;;;5.67;5.17;;;24.50;54.10;;;;;;4979117;28;20536;-80
2022/09/10 00:23:05;;;;;;;6.10;5.27;;;24.50;54.20;;;;;;4979367;28;20453;-81
2022/09/10 00:25:33;;;;;;;6.07;5.33;;;24.50;54.30;;;;;;4979094;28;20477;-80
2022/09/10 00:28:01;;;;;;;6.07;5.57;;;24.50;54.10;;;;;;4979556;28;20454;-80
2022/09/10 00:30:29;;;;;;;5.73;5.10;;;24.50;54.10;;;;;;4978479;28;20446;-81
2022/09/10 00:32:57;;;;;;;8.40;5.70;;;24.40;54.20;;;;;;4978738;28;20483;-80
2022/09/10 00:35:25;;;;;;;7.57;5.30;;;24.30;54.20;;;;;;4978275;28;20485;-80
2022/09/10 00:37:52;;;;;;;8.17;6.10;;;24.30;54.40;;;;;;4980192;28;20938;-81
2022/09/10 00:40:21;;;;;;;7.97;5.70;;;24.30;54.40;;;;;;4977433;28;20444;-81
2022/09/10 00:42:49;;;;;;;5.67;5.17;;;24.30;54.40;;;;;;4965699;28;20449;-81
2022/09/10 00:45:18;;;;;;;7.30;5.70;;;24.30;54.20;;;;;;4979577;28;20470;-80
2022/09/10 00:47:46;;;;;;;6.63;6.00;;;24.30;54.30;;;;;;4979643;28;20457;-80
2022/09/10 00:50:17;;;;;;;6.37;5.77;;;24.30;54.50;;;;;;4978959;28;20443;-81
2022/09/10 00:52:46;;;;;;;6.87;6.10;;;24.30;54.40;;;;;;4979036;28;20446;-80
2022/09/10 00:55:14;;;;;;;6.43;5.80;;;24.30;54.20;;;;;;4978899;28;20469;-81
2022/09/10 00:57:44;;;;;;;8.23;6.03;;;24.30;54.20;;;;;;4978821;28;20435;-81
2022/09/10 01:00:13;;;;;;;6.60;6.00;;;24.30;54.30;;;;;;4978115;28;20457;-81
2022/09/10 01:02:41;;;;;;;6.10;5.60;;;24.30;54.30;;;;;;4979296;28;20515;-80
2022/09/10 01:05:10;;;;;;;7.00;5.50;;;24.30;54.40;;;;;;4978103;28;20470;-81
2022/09/10 01:07:38;;;;;;;6.67;5.80;;;24.30;54.20;;;;;;4978741;28;20443;-81
2022/09/10 01:10:08;;;;;;;6.43;5.80;;;24.30;54.10;;;;;;4978145;28;20431;-81
2022/09/10 01:12:48;;;;;;;8.03;7.23;;;24.30;54.20;;;;;;4978514;28;20446;-80
2022/09/10 01:15:21;;;;;;;6.63;5.30;;;24.30;54.10;;;;;;4978584;28;20466;-81
2022/09/10 01:17:58;;;;;;;8.23;6.53;;;24.30;54.00;;;;;;4978765;28;20422;-80
2022/09/10 01:20:35;;;;;;;7.07;5.90;;;24.30;54.10;;;;;;4978450;28;20442;-80
2022/09/10 01:23:30;;;;;;;9.43;6.30;;;24.30;54.00;;;;;;4978337;28;20435;-81
2022/09/10 01:26:03;;;;;;;6.93;6.27;;;24.20;54.00;;;;;;4978565;28;20462;-82
2022/09/10 01:28:35;;;;;;;7.37;6.57;;;24.30;54.10;;;;;;4978274;28;20413;-82
2022/09/10 01:31:17;;;;;;;7.10;6.40;;;24.30;54.10;;;;;;4978883;28;20439;-82
2022/09/10 01:33:47;;;;;;;9.80;6.70;;;24.20;54.10;;;;;;4977731;28;20533;-81
2022/09/10 01:36:17;;;;;;;8.70;6.60;;;24.20;54.20;;;;;;4975163;28;20456;-81
2022/09/10 01:38:45;;;;;;;8.27;7.23;;;24.20;54.10;;;;;;4971053;28;20453;-81
2022/09/10 01:41:13;;;;;;;8.10;7.30;;;24.20;54.30;;;;;;4978408;28;20474;-81
2022/09/10 01:43:43;;;;;;;7.87;6.47;;;24.30;54.10;;;;;;4978307;28;20989;-81
2022/09/10 01:46:21;;;;;;;8.07;6.90;;;24.30;53.90;;;;;;4978101;28;20476;-82
2022/09/10 01:49:04;;;;;;;7.60;6.50;;;24.30;54.10;;;;;;4978546;28;20426;-81
2022/09/10 01:51:40;;;;;;;7.30;6.60;;;24.20;53.90;;;;;;4978186;28;20418;-81
2022/09/10 01:54:16;;;;;;;8.37;7.27;;;24.20;54.00;;;;;;4978474;28;20901;-81
2022/09/10 01:56:47;;;;;;;7.50;6.23;;;24.20;53.80;;;;;;4977021;28;20469;-82
2022/09/10 01:59:25;;;;;;;8.43;6.80;;;24.20;54.10;;;;;;4977748;28;20457;-81
2022/09/10 02:01:56;;;;;;;7.53;6.73;;;24.10;53.80;;;;;;4976172;28;20827;-82
2022/09/10 02:04:24;;;;;;;10.63;8.00;;;24.10;53.90;;;;;;4977939;28;20445;-82
2022/09/10 02:06:53;;;;;;;8.07;7.27;;;24.10;54.20;;;;;;4977350;28;20469;-81
2022/09/10 02:09:21;;;;;;;7.33;6.63;;;24.10;53.90;;;;;;4979879;28;20450;-82
2022/09/10 02:11:52;;;;;;;11.30;7.00;;;24.10;54.10;;;;;;4978038;28;20477;-82
2022/09/10 02:14:21;;;;;;;7.37;6.40;;;24.10;54.10;;;;;;4976799;28;20428;-80
2022/09/10 02:16:52;;;;;;;10.03;7.40;;;24.10;54.20;;;;;;4976930;28;20461;-81
2022/09/10 02:19:20;;;;;;;7.67;6.57;;;24.10;53.90;;;;;;4957836;29;20439;-81
2022/09/10 02:21:48;;;;;;;6.47;5.87;;;24.10;54.10;;;;;;4957701;28;20474;-81
2022/09/10 02:24:16;;;;;;;9.50;6.87;;;24.10;53.90;;;;;;4957494;28;20455;-81
2022/09/10 02:26:45;;;;;;;7.63;6.30;;;24.10;54.20;;;;;;4957627;28;20465;-81
2022/09/10 02:29:14;;;;;;;8.80;6.67;;;24.10;53.80;;;;;;4957660;28;20433;-81
2022/09/10 02:31:43;;;;;;;6.27;5.67;;;24.10;53.80;;;;;;4958054;28;20443;-80
2022/09/10 02:34:11;;;;;;;7.23;6.53;;;24.10;53.90;;;;;;4976813;28;20458;-82
2022/09/10 02:36:39;;;;;;;7.33;5.97;;;24.10;53.90;;;;;;4976327;28;20477;-81
2022/09/10 02:39:07;;;;;;;6.90;5.50;;;24.00;54.00;;;;;;4978513;28;20437;-81
2022/09/10 02:41:39;;;;;;;6.10;5.50;;;24.00;53.80;;;;;;4980069;28;20445;-81
2022/09/10 02:44:07;;;;;;;6.73;6.13;;;24.00;54.10;;;;;;4977801;28;20469;-81
2022/09/10 02:46:35;;;;;;;8.27;5.60;;;24.10;54.20;;;;;;4963700;28;20471;-81
2022/09/10 02:49:05;;;;;;;7.23;6.10;;;24.10;53.80;;;;;;4963225;29;20451;-81
2022/09/10 02:51:33;;;;;;;7.47;6.77;;;24.00;53.90;;;;;;4961506;29;20454;-82
2022/09/10 02:54:01;;;;;;;6.20;5.63;;;24.00;54.00;;;;;;4958583;29;20455;-82
2022/09/10 02:56:29;;;;;;;6.47;5.80;;;24.00;53.90;;;;;;4965403;28;20445;-82
2022/09/10 02:58:57;;;;;;;6.53;5.90;;;24.00;53.90;;;;;;4977843;28;20425;-82
2022/09/10 03:01:25;;;;;;;6.83;6.20;;;24.00;54.10;;;;;;4977439;28;20446;-81
2022/09/10 03:03:54;;;;;;;6.43;5.70;;;24.00;53.80;;;;;;4978151;28;20833;-82
2022/09/10 03:06:23;;;;;;;5.87;5.17;;;24.00;54.00;;;;;;4978089;28;20529;-81
2022/09/10 03:08:54;;;;;;;6.43;5.83;;;24.00;54.10;;;;;;4977314;28;20442;-81
2022/09/10 03:11:22;;;;;;;6.23;5.30;;;24.00;53.90;;;;;;4978177;28;20401;-81
2022/09/10 03:13:50;;;;;;;7.37;5.33;;;24.00;53.90;;;;;;4977744;28;20447;-81
2022/09/10 03:16:18;;;;;;;5.90;5.10;;;23.90;54.00;;;;;;4976077;28;20458;-81
2022/09/10 03:18:46;;;;;;;5.70;5.20;;;24.00;53.90;;;;;;4975597;28;20426;-81
2022/09/10 03:21:17;;;;;;;6.13;5.53;;;24.00;54.20;;;;;;4976438;28;20449;-81
2022/09/10 03:23:48;;;;;;;7.67;5.90;;;23.90;53.90;;;;;;4977397;28;20478;-81
2022/09/10 03:26:16;;;;;;;6.07;5.57;;;24.00;54.10;;;;;;4980966;28;20473;-82
2022/09/10 03:28:44;;;;;;;6.07;5.57;;;24.00;54.00;;;;;;4979991;28;20428;-81
2022/09/10 03:31:12;;;;;;;5.23;4.83;;;24.00;54.10;;;;;;4979512;28;20405;-81
2022/09/10 03:33:41;;;;;;;5.93;5.20;;;24.00;54.00;;;;;;4967586;28;20454;-81
2022/09/10 03:36:12;;;;;;;6.10;5.40;;;23.90;53.90;;;;;;4960619;28;20460;-81
2022/09/10 03:38:40;;;;;;;5.00;4.60;;;23.90;54.00;;;;;;4960783;28;20400;-80
2022/09/10 03:41:09;;;;;;;5.90;5.30;;;24.00;54.20;;;;;;4980031;28;20440;-81
2022/09/10 03:43:37;;;;;;;5.10;4.70;;;24.00;53.90;;;;;;4979570;28;20481;-81
2022/09/10 03:46:06;;;;;;;5.07;4.67;;;24.00;54.00;;;;;;4980083;28;20939;-81
2022/09/10 03:48:33;;;;;;;4.93;4.43;;;24.00;53.90;;;;;;4980509;28;20520;-81
2022/09/10 03:51:01;;;;;;;5.40;4.20;;;23.90;53.80;;;;;;4979652;28;20467;-81
2022/09/10 03:53:29;;;;;;;4.30;4.00;;;23.90;54.00;;;;;;4979930;28;20468;-81
2022/09/10 03:55:57;;;;;;;5.27;4.77;;;23.90;53.80;;;;;;4979973;28;20424;-80
2022/09/10 03:58:26;;;;;;;4.70;4.30;;;23.90;54.30;;;;;;4979366;28;20457;-81
2022/09/10 04:00:54;;;;;;;5.27;4.77;;;24.00;53.70;;;;;;4979521;28;20439;-81
2022/09/10 04:03:22;;;;;;;4.70;4.30;;;23.90;53.70;;;;;;4979578;28;20470;-81
2022/09/10 04:05:50;;;;;;;5.13;4.73;;;23.80;53.80;;;;;;4979621;28;20447;-81
2022/09/10 04:08:19;;;;;;;4.50;4.10;;;23.90;53.90;;;;;;4979447;28;20449;-81
2022/09/10 04:10:47;;;;;;;4.57;4.23;;;23.90;53.90;;;;;;4979387;28;20462;-81
2022/09/10 04:13:15;;;;;;;4.97;4.47;;;23.90;53.80;;;;;;4979407;28;20449;-81
2022/09/10 04:15:45;;;;;;;4.70;4.30;;;23.90;54.00;;;;;;4979142;28;20448;-81
2022/09/10 04:18:14;;;;;;;4.20;3.80;;;23.90;53.90;;;;;;4979431;28;20458;-82
2022/09/10 04:20:42;;;;;;;5.43;4.10;;;23.80;53.80;;;;;;4980012;28;20453;-81
2022/09/10 04:23:10;;;;;;;6.37;4.67;;;23.90;54.00;;;;;;4979556;28;20465;-82
2022/09/10 04:25:38;;;;;;;4.50;4.10;;;23.90;53.80;;;;;;4979614;28;20445;-82
2022/09/10 04:28:06;;;;;;;4.37;3.97;;;24.00;54.10;;;;;;4979380;28;20452;-82
2022/09/10 04:30:34;;;;;;;4.23;3.87;;;24.00;53.70;;;;;;4979295;28;20477;-82
2022/09/10 04:33:03;;;;;;;3.90;3.57;;;23.90;54.30;;;;;;4978953;28;20457;-82
2022/09/10 04:35:31;;;;;;;3.73;3.43;;;23.90;53.90;;;;;;4977262;28;20481;-82
2022/09/10 04:37:59;;;;;;;4.17;3.77;;;23.90;54.00;;;;;;4979172;28;20941;-82
2022/09/10 04:40:27;;;;;;;3.60;3.40;;;24.00;53.80;;;;;;4975684;28;20451;-82
2022/09/10 04:42:55;;;;;;;5.10;3.90;;;23.90;53.70;;;;;;4985994;28;20448;-82
2022/09/10 04:45:23;;;;;;;4.43;3.70;;;24.00;53.60;;;;;;4993765;28;20464;-82
2022/09/10 04:47:51;;;;;;;4.40;4.00;;;23.90;53.60;;;;;;4987221;28;20900;-82
2022/09/10 04:50:21;;;;;;;3.40;3.20;;;23.90;53.80;;;;;;4981933;28;20450;-82
2022/09/10 04:52:49;;;;;;;3.70;3.00;;;23.90;53.80;;;;;;4981497;28;20413;-82
2022/09/10 04:55:17;;;;;;;4.13;3.63;;;23.90;53.70;;;;;;4981099;28;20471;-82
2022/09/10 04:57:45;;;;;;;3.67;3.13;;;23.90;53.80;;;;;;4980103;28;20505;-82
2022/09/10 05:00:13;;;;;;;6.50;3.50;;;24.00;53.80;;;;;;4980139;28;20423;-82
2022/09/10 05:02:42;;;;;;;3.57;3.27;;;23.90;53.60;;;;;;4980120;28;20451;-82
2022/09/10 05:05:09;;;;;;;6.60;3.43;;;24.00;54.00;;;;;;4981054;28;20432;-82
2022/09/10 05:07:38;;;;;;;3.23;3.03;;;24.00;53.70;;;;;;4981497;28;20955;-82
2022/09/10 05:10:09;;;;;;;3.60;3.20;;;24.00;53.80;;;;;;4980871;28;20446;-82
2022/09/10 05:12:37;;;;;;;6.40;3.00;;;24.00;53.70;;;;;;4980831;28;20872;-82
2022/09/10 05:15:06;;;;;;;3.60;3.40;;;23.90;53.60;;;;;;4980533;28;20493;-82
2022/09/10 05:17:34;;;;;;;3.20;3.00;;;23.90;53.70;;;;;;4979834;28;20454;-81
2022/09/10 05:20:04;;;;;;;3.27;3.07;;;23.90;53.60;;;;;;4978762;28;20454;-82
2022/09/10 05:22:33;;;;;;;3.47;3.17;;;24.00;54.00;;;;;;4978990;28;20428;-82
2022/09/10 05:25:08;;;;;;;2.97;2.67;;;24.00;53.80;;;;;;4978865;28;20436;-82
2022/09/10 05:27:36;;;;;;;3.33;3.10;;;23.90;53.60;;;;;;4979100;28;20450;-82
2022/09/10 05:30:06;;;;;;;3.30;3.00;;;23.90;53.70;;;;;;4978540;28;20421;-82
2022/09/10 05:32:34;;;;;;;3.13;2.93;;;23.90;53.50;;;;;;4978891;28;20446;-81
2022/09/10 05:35:04;;;;;;;3.00;2.80;;;24.00;53.70;;;;;;4978805;28;20461;-82
2022/09/10 05:37:32;;;;;;;2.97;2.77;;;24.00;53.70;;;;;;4978656;28;20440;-82
2022/09/10 05:40:00;;;;;;;3.30;3.10;;;24.00;53.60;;;;;;4979150;28;20454;-82
2022/09/10 05:42:29;;;;;;;3.13;2.93;;;24.00;53.60;;;;;;4981002;28;20436;-82
2022/09/10 05:44:58;;;;;;;3.43;3.13;;;24.00;53.80;;;;;;4980421;28;20518;-82
2022/09/10 05:47:27;;;;;;;3.10;2.90;;;24.00;53.50;;;;;;4980250;28;20452;-82
2022/09/10 05:49:55;;;;;;;3.47;3.20;;;24.00;53.70;;;;;;4980479;28;20968;-82
2022/09/10 05:52:23;;;;;;;3.40;3.20;;;24.00;53.70;;;;;;4982641;28;20454;-82
2022/09/10 05:54:51;;;;;;;2.93;2.80;;;24.00;53.40;;;;;;4981715;28;20428;-82
2022/09/10 05:57:19;;;;;;;3.60;3.10;;;24.10;53.50;;;;;;4981134;28;20558;-82
2022/09/10 05:59:49;;;;;;;2.80;2.70;;;24.10;53.70;;;;;;4982336;28;20446;-82
2022/09/10 06:02:17;;;;;;;3.10;3.00;;;24.10;53.40;;;;;;4980565;28;20425;-82
2022/09/10 06:04:51;;;;;;;3.27;3.07;;;24.10;53.50;;;;;;4981930;28;20549;-81
2022/09/10 06:07:19;;;;;;;3.40;3.10;;;24.10;53.30;;;;;;4982517;28;20473;-81
2022/09/10 06:09:47;;;;;;;2.83;2.63;;;24.10;53.50;;;;;;4980822;28;20524;-81
2022/09/10 06:12:15;;;;;;;3.07;2.87;;;24.20;53.30;;;;;;4981029;28;20425;-81
2022/09/10 06:14:43;;;;;;;3.13;2.90;;;24.10;53.30;;;;;;4981862;28;20420;-82
2022/09/10 06:17:13;;;;;;;3.00;2.83;;;24.20;53.30;;;;;;4980927;28;20446;-82
2022/09/10 06:19:43;;;;;;;3.03;2.83;;;24.20;53.20;;;;;;4980519;28;20431;-81
2022/09/10 06:22:11;;;;;;;3.20;3.10;;;24.10;53.20;;;;;;4960583;28;20445;-81
2022/09/10 06:24:39;;;;;;;2.97;2.77;;;24.10;53.20;;;;;;4959695;28;20483;-81
2022/09/10 06:27:08;;;;;;;3.33;3.13;;;24.20;53.40;;;;;;4961065;29;20454;-81
2022/09/10 06:29:36;;;;;;;3.03;2.83;;;24.30;53.20;;;;;;4961025;29;20451;-82
2022/09/10 06:32:05;;;;;;;2.80;2.70;;;24.20;53.30;;;;;;4963371;29;20451;-82
2022/09/10 06:34:34;;;;;;;3.17;2.60;;;24.30;53.30;;;;;;4959562;29;20417;-81
2022/09/10 06:37:03;;;;;;;2.73;2.53;;;24.30;53.20;;;;;;4959093;29;20447;-81
2022/09/10 06:39:30;;;;;;;2.90;2.70;;;24.30;53.10;;;;;;4975372;28;20469;-81
2022/09/10 06:41:58;;;;;;;2.73;2.53;;;24.30;53.20;;;;;;4978929;28;20454;-81
2022/09/10 06:44:28;;;;;;;3.00;2.80;;;24.30;53.10;;;;;;4977850;28;20497;-81
2022/09/10 06:46:56;;;;;;;2.93;2.70;;;24.30;53.20;;;;;;4977559;28;20432;-81
2022/09/10 06:49:46;;;;;;;3.53;3.27;;;24.40;52.90;;;;;;4976496;28;20413;-81
2022/09/10 06:52:14;;;;;;;2.90;2.70;;;24.40;53.00;;;;;;4976576;28;20454;-81
2022/09/10 06:54:42;;;;;;;3.13;2.83;;;24.40;52.90;;;;;;4960486;28;20459;-81
2022/09/10 06:57:10;;;;;;;2.60;2.50;;;24.40;53.10;;;;;;4956445;29;20452;-81
2022/09/10 06:59:37;;;;;;;2.70;2.50;;;24.50;53.10;;;;;;4956052;28;20443;-81
2022/09/10 07:02:06;;;;;;;2.60;2.50;;;24.50;53.00;;;;;;4956213;29;20459;-81
2022/09/10 07:04:34;;;;;;;3.03;2.80;;;24.50;52.90;;;;;;4955933;29;20479;-81
2022/09/10 07:07:03;;;;;;;2.87;2.73;;;24.50;53.00;;;;;;4956117;29;20475;-81
2022/09/10 07:09:31;;;;;;;3.10;2.90;;;24.60;52.90;;;;;;4956153;29;20538;-81
2022/09/10 07:11:59;;;;;;;2.67;2.47;;;24.60;52.90;;;;;;4968498;28;20445;-81
2022/09/10 07:14:27;;;;;;;2.70;2.60;;;24.60;52.80;;;;;;4974756;28;20438;-81
2022/09/10 07:16:56;;;;;;;2.70;2.50;;;24.70;52.80;;;;;;4975775;28;20497;-81
2022/09/10 07:19:24;;;;;;;2.73;2.63;;;24.70;52.90;;;;;;4975831;28;20425;-81
2022/09/10 07:21:52;;;;;;;2.67;2.47;;;24.70;52.70;;;;;;4975629;28;20512;-81
2022/09/10 07:24:21;;;;;;;2.70;2.60;;;24.70;52.80;;;;;;4975144;28;20444;-81
2022/09/10 07:26:50;;;;;;;2.47;2.27;;;24.80;52.80;;;;;;4975504;28;20481;-81
2022/09/10 07:29:18;;;;;;;2.50;2.30;;;24.80;52.90;;;;;;4977001;28;20550;-81
2022/09/10 07:31:47;;;;;;;2.40;2.30;;;24.80;52.60;;;;;;4975623;28;20451;-81
2022/09/10 07:34:15;;;;;;;2.50;2.30;;;24.90;52.60;;;;;;4976013;28;20445;-81
2022/09/10 07:36:43;;;;;;;2.47;2.37;;;24.90;52.60;;;;;;4976500;28;20481;-81
2022/09/10 07:39:11;;;;;;;3.37;2.50;;;24.90;52.60;;;;;;4976258;28;20450;-81
2022/09/10 07:41:40;;;;;;;2.77;2.57;;;24.90;52.40;;;;;;4977047;28;20460;-81
2022/09/10 07:44:08;;;;;;;2.70;2.50;;;25.00;52.50;;;;;;4976081;28;20452;-81
2022/09/10 07:46:37;;;;;;;2.40;2.30;;;25.00;52.40;;;;;;4976824;28;20461;-81
2022/09/10 07:49:05;;;;;;;2.70;2.50;;;25.00;52.30;;;;;;4978156;28;20517;-82
2022/09/10 07:51:34;;;;;;;2.70;2.50;;;25.00;52.60;;;;;;4977852;28;20421;-81
2022/09/10 07:54:02;;;;;;;2.67;2.50;;;25.00;52.50;;;;;;4977362;28;20454;-82
2022/09/10 07:56:31;;;;;;;2.50;2.40;;;25.00;52.40;;;;;;4977336;28;20464;-82
2022/09/10 07:59:01;;;;;;;2.63;2.53;;;25.00;52.30;;;;;;4976012;28;20458;-81
2022/09/10 08:01:30;;;;;;;2.87;2.67;;;25.00;52.30;;;;;;4975093;28;20432;-82
2022/09/10 08:03:59;;;;;;;3.23;2.83;;;25.00;52.30;;;;;;4975559;28;20439;-82
2022/09/10 08:06:27;;;;;;;2.77;2.60;;;25.10;52.20;;;;;;4976321;28;20449;-82
2022/09/10 08:08:55;;;;;;;3.73;2.77;;;25.10;52.30;;;;;;4977214;28;20452;-82
2022/09/10 08:11:25;;;;;;;3.10;2.73;;;25.10;52.30;;;;;;4978888;28;20427;-82
2022/09/10 08:13:55;;;;;;;4.70;2.70;;;25.10;52.20;;;;;;4979507;28;20416;-82
2022/09/10 08:16:25;;;;;;;2.87;2.77;;;25.10;52.20;;;;;;4980398;28;20466;-82
2022/09/10 08:18:55;;;;;;;3.10;2.90;;;25.10;52.00;;;;;;4979523;28;20491;-82
2022/09/10 08:21:39;;;;;;;2.70;2.50;;;25.10;52.10;;;;;;4979309;28;20429;-81
2022/09/10 08:24:07;;;;;;;2.93;2.70;;;25.20;52.10;;;;;;4977892;28;20428;-82
2022/09/10 08:26:35;;;;;;;3.07;2.90;;;25.10;52.20;;;;;;4978052;28;20449;-82
2022/09/10 08:29:04;;;;;;;3.73;3.43;;;25.10;52.30;;;;;;4978362;28;20425;-82
2022/09/10 08:31:49;;;;;;;3.00;2.70;;;25.20;52.30;;;;;;4977847;28;20432;-82
2022/09/10 08:34:37;;;;;;;3.43;3.20;;;25.20;52.30;;;;;;4977958;28;20431;-82
2022/09/10 08:37:06;;;;;;;3.33;3.10;;;25.20;52.30;;;;;;4977852;28;20457;-82
2022/09/10 08:39:36;;;;;;;3.07;2.87;;;25.20;52.20;;;;;;4977731;28;20431;-82
2022/09/10 08:42:09;;;;;;;2.83;2.73;;;25.30;52.50;;;;;;4978523;28;20438;-81
2022/09/10 08:44:40;;;;;;;3.50;3.20;;;25.40;52.20;;;;;;4978296;28;20444;-82
2022/09/10 08:47:20;;;;;;;3.20;2.87;;;25.30;52.00;;;;;;4978100;28;20452;-82
2022/09/10 08:49:49;;;;;;;3.30;3.03;;;25.40;52.10;;;;;;4978817;28;20428;-83
2022/09/10 08:52:21;;;;;;;2.87;2.67;;;25.40;52.10;;;;;;4981233;28;20454;-84
2022/09/10 08:54:55;;;;;;;3.40;3.20;;;25.40;52.00;;;;;;4981799;28;20413;-79
2022/09/10 08:57:29;;;;;;;2.77;2.67;;;25.40;52.20;;;;;;4980655;28;20449;-82
2022/09/10 09:00:04;;;;;;;7.17;3.73;;;25.40;52.10;;;;;;4981197;28;20460;-82
2022/09/10 09:02:39;;;;;;;5.10;3.43;;;25.50;52.00;;;;;;4981031;28;20561;-80
2022/09/10 09:05:19;;;;;;;4.30;3.40;;;25.60;52.00;;;;;;4982917;28;20458;-81
2022/09/10 09:07:48;;;;;;;3.40;3.20;;;25.70;51.80;;;;;;4984582;28;20427;-82
2022/09/10 09:10:22;;;;;;;3.10;2.90;;;25.70;51.60;;;;;;4982653;28;20420;-82
2022/09/10 09:12:57;;;;;;;3.63;3.37;;;25.90;51.60;;;;;;4981322;28;20473;-83
2022/09/10 09:15:29;;;;;;;3.50;3.30;;;26.00;51.30;;;;;;4981932;28;20447;-82
2022/09/10 09:18:11;;;;;;;3.83;3.53;;;26.00;51.20;;;;;;4981170;28;20480;-82
2022/09/10 09:20:43;;;;;;;3.77;3.47;;;26.10;51.00;;;;;;4979245;28;20465;-82
2022/09/10 09:23:19;;;;;;;3.70;3.47;;;26.20;50.80;;;;;;4977781;28;20431;-82
2022/09/10 09:25:50;;;;;;;3.23;3.03;;;26.30;50.80;;;;;;4976989;28;20512;-81
2022/09/10 09:28:23;;;;;;;3.33;3.13;;;26.40;50.80;;;;;;4978250;28;20466;-82
2022/09/10 09:30:52;;;;;;;3.40;3.10;;;26.50;50.60;;;;;;4976983;28;20413;-82
2022/09/10 09:33:26;;;;;;;3.57;3.10;;;26.60;50.60;;;;;;4976631;28;20421;-80
2022/09/10 09:36:00;;;;;;;3.50;3.30;;;26.70;50.40;;;;;;4975517;28;20557;-82
2022/09/10 09:38:30;;;;;;;4.13;3.80;;;26.70;50.30;;;;;;4976845;28;20437;-82
2022/09/10 09:41:05;;;;;;;3.63;3.40;;;26.80;50.40;;;;;;4976594;28;20413;-82
2022/09/10 09:43:46;;;;;;;3.73;3.37;;;26.90;50.20;;;;;;4975738;28;20428;-83
2022/09/10 09:46:29;;;;;;;4.20;3.90;;;26.90;50.00;;;;;;4975732;28;20452;-83
2022/09/10 09:49:01;;;;;;;3.97;3.70;;;27.00;50.20;;;;;;4976598;28;20483;-83
2022/09/10 09:51:34;;;;;;;3.90;3.60;;;27.10;50.10;;;;;;4976126;28;20425;-83
2022/09/10 09:54:05;;;;;;;4.20;3.90;;;27.10;50.10;;;;;;4978311;28;20452;-84
2022/09/10 09:56:55;;;;;;;3.93;3.63;;;27.20;50.10;;;;;;4975824;28;20462;-84
2022/09/10 09:59:26;;;;;;;4.23;3.83;;;27.20;50.20;;;;;;4975875;28;20447;-84
2022/09/10 10:01:54;;;;;;;3.90;3.60;;;27.30;50.10;;;;;;4976112;28;20458;-84
2022/09/10 10:04:25;;;;;;;4.37;3.97;;;27.40;50.10;;;;;;4976593;28;20456;-84
2022/09/10 10:06:56;;;;;;;4.50;4.07;;;27.50;49.90;;;;;;4992622;28;20468;-82
2022/09/10 10:09:31;;;;;;;4.30;4.00;;;27.50;49.80;;;;;;4998663;28;20396;-83
2022/09/10 10:12:01;;;;;;;4.10;3.80;;;27.60;49.90;;;;;;4999449;28;20485;-83
2022/09/10 10:14:47;;;;;;;4.10;3.80;;;27.70;49.80;;;;;;4999203;28;20424;-84
2022/09/10 10:17:32;;;;;;;4.20;3.90;;;27.80;49.70;;;;;;4999032;28;20407;-83
2022/09/10 10:20:04;;;;;;;4.03;3.73;;;27.80;49.70;;;;;;4999947;28;20401;-83
2022/09/10 10:22:33;;;;;;;3.97;3.77;;;27.70;49.70;;;;;;4999087;28;20444;-85
2022/09/10 10:25:01;;;;;;;4.73;4.30;;;27.70;49.70;;;;;;4991318;28;20441;-84
2022/09/10 10:27:31;;;;;;;3.97;3.67;;;27.80;49.90;;;;;;4981058;28;20474;-85
2022/09/10 10:30:01;;;;;;;4.00;3.80;;;27.90;49.80;;;;;;4979610;28;20427;-85
2022/09/10 10:32:41;;;;;;;5.00;4.20;;;28.10;49.60;;;;;;4980888;28;20442;-85
2022/09/10 10:35:18;;;;;;;4.00;3.70;;;28.20;49.50;;;;;;4982218;28;20914;-85
2022/09/10 10:37:55;;;;;;;4.40;4.00;;;28.40;49.20;;;;;;4977207;28;20423;-83
2022/09/10 10:40:26;;;;;;;4.50;4.20;;;28.50;49.00;;;;;;4982449;28;20421;-85
2022/09/10 10:42:56;;;;;;;4.20;3.90;;;28.70;49.00;;;;;;4982904;28;20456;-85
2022/09/10 10:45:37;;;;;;;4.80;4.40;;;28.70;48.70;;;;;;4982477;28;20512;-84
2022/09/10 10:48:10;;;;;;;4.87;4.13;;;28.80;48.60;;;;;;4982929;28;20450;-83
2022/09/10 10:50:47;;;;;;;4.43;3.90;;;28.70;48.60;;;;;;4983824;28;20442;-84
2022/09/10 10:53:29;;;;;;;7.23;4.13;;;28.70;48.60;;;;;;4972280;28;20425;-83
2022/09/10 10:56:01;;;;;;;3.57;3.37;;;28.60;48.80;;;;;;4981327;28;20462;-84
2022/09/10 10:58:43;;;;;;;4.40;4.10;;;28.60;48.70;;;;;;4981105;28;20434;-83
2022/09/10 11:01:17;;;;;;;3.80;3.60;;;28.50;48.80;;;;;;4981673;28;20458;-84
2022/09/10 11:03:48;;;;;;;4.30;4.00;;;28.50;49.00;;;;;;4983528;28;20452;-83
2022/09/10 11:06:20;;;;;;;4.97;4.57;;;28.50;49.20;;;;;;4983636;28;20488;-83
2022/09/10 11:08:49;;;;;;;4.80;4.30;;;28.60;49.10;;;;;;4980095;28;20456;-83
2022/09/10 11:11:18;;;;;;;4.60;4.20;;;28.70;49.00;;;;;;4983079;28;20599;-84
2022/09/10 11:13:50;;;;;;;4.63;4.23;;;28.70;49.50;;;;;;4982390;28;20442;-84
2022/09/10 11:16:20;;;;;;;4.23;3.93;;;28.80;48.90;;;;;;4981950;28;20432;-84
2022/09/10 11:18:50;;;;;;;4.60;4.20;;;28.80;48.80;;;;;;4985149;28;20494;-83
2022/09/10 11:21:21;;;;;;;4.40;4.00;;;28.90;48.70;;;;;;4985424;28;20460;-84
2022/09/10 11:23:53;;;;;;;5.10;4.70;;;29.10;48.60;;;;;;4986101;28;20425;-84
2022/09/10 11:26:23;;;;;;;4.70;4.30;;;29.20;48.30;;;;;;4983465;28;20456;-83
2022/09/10 11:28:55;;;;;;;4.60;4.20;;;29.20;48.00;;;;;;4984081;28;20421;-83
2022/09/10 11:31:29;;;;;;;4.37;4.07;;;29.20;48.10;;;;;;4981397;28;20493;-85
2022/09/10 11:33:59;;;;;;;4.30;4.00;;;29.10;48.10;;;;;;4979042;28;20442;-83
2022/09/10 11:36:31;;;;;;;4.70;4.30;;;29.10;48.30;;;;;;4981626;28;20545;-83
2022/09/10 11:39:05;;;;;;;4.50;4.20;;;29.00;48.40;;;;;;4981297;28;20480;-83
2022/09/10 11:41:33;;;;;;;8.70;4.27;;;28.90;48.50;;;;;;4980017;28;20439;-83
2022/09/10 11:44:05;;;;;;;5.00;4.60;;;28.90;48.70;;;;;;4982412;28;20446;-84
2022/09/10 11:46:35;;;;;;;5.27;4.87;;;28.90;48.70;;;;;;4986515;28;20474;-83
2022/09/10 11:49:05;;;;;;;5.03;4.53;;;28.90;48.70;;;;;;4986340;28;20513;-83
2022/09/10 11:51:36;;;;;;;6.50;4.83;;;28.80;48.70;;;;;;4986508;28;20467;-83
2022/09/10 11:54:06;;;;;;;7.20;5.40;;;28.80;48.90;;;;;;4984866;28;20424;-85
2022/09/10 11:56:48;;;;;;;5.70;4.70;;;28.90;49.00;;;;;;4985250;28;20448;-84
2022/09/10 11:59:25;;;;;;;5.40;4.90;;;29.20;48.90;;;;;;4983231;28;20453;-83
2022/09/10 12:02:06;;;;;;;4.77;4.40;;;29.50;48.20;;;;;;4983791;28;20413;-83
2022/09/10 12:04:45;;;;;;;5.23;4.83;;;29.60;48.70;;;;;;4981769;28;20416;-83
2022/09/10 12:07:21;;;;;;;5.80;5.20;;;29.60;47.80;;;;;;4980906;28;20876;-83
2022/09/10 12:09:53;;;;;;;4.87;4.50;;;29.60;47.80;;;;;;4981870;28;20421;-83
2022/09/10 12:12:24;;;;;;;4.80;4.40;;;29.70;48.00;;;;;;4982178;28;20448;-84
2022/09/10 12:14:52;;;;;;;4.77;4.43;;;29.80;47.50;;;;;;4982075;28;20465;-83
2022/09/10 12:17:23;;;;;;;4.43;4.03;;;29.80;47.50;;;;;;4985196;28;20423;-83
2022/09/10 12:19:52;;;;;;;4.97;4.57;;;29.80;47.50;;;;;;4983853;28;20453;-84
2022/09/10 12:22:24;;;;;;;5.10;4.60;;;29.80;47.40;;;;;;4989460;28;20446;-82
2022/09/10 12:24:53;;;;;;;5.00;4.60;;;29.90;47.40;;;;;;4980872;28;20458;-84
2022/09/10 12:27:21;;;;;;;6.80;4.13;;;30.00;47.40;;;;;;4980416;28;20477;-83
2022/09/10 12:29:49;;;;;;;4.87;4.47;;;30.10;47.10;;;;;;4980502;28;20458;-83
2022/09/10 12:32:38;;;;;;;4.90;4.13;;;30.30;47.00;;;;;;4977627;28;20932;-83
2022/09/10 12:35:45;;;;;;;4.40;4.03;;;30.40;46.70;;;;;;4975850;28;20429;-83
2022/09/10 12:38:55;;;;;;;5.07;4.23;;;30.50;46.70;;;;;;4979570;28;20430;-83
2022/09/10 12:41:58;;;;;;;4.77;4.47;;;30.50;46.70;;;;;;4982614;28;20409;-83
2022/09/10 12:44:45;;;;;;;6.80;4.40;;;30.50;46.50;;;;;;4980666;28;20424;-83
2022/09/10 12:47:40;;;;;;;4.37;3.97;;;30.40;46.60;;;;;;4978093;28;20449;-83
2022/09/10 12:50:25;;;;;;;4.20;3.90;;;30.40;46.50;;;;;;4980103;28;20968;-83
2022/09/10 12:53:19;;;;;;;4.10;3.87;;;30.30;46.60;;;;;;4975196;28;20442;-83
2022/09/10 12:55:53;;;;;;;4.40;4.10;;;30.20;46.70;;;;;;4980218;28;20462;-83
2022/09/10 12:58:23;;;;;;;4.67;4.10;;;30.10;46.90;;;;;;4982445;28;21165;-83
2022/09/10 13:01:04;;;;;;;4.13;3.83;;;29.90;47.00;;;;;;4981212;28;20434;-84
2022/09/10 13:03:31;;;;;;;4.20;4.00;;;29.80;47.20;;;;;;4981004;28;20424;-83
2022/09/10 13:06:00;;;;;;;6.67;4.23;;;29.80;47.50;;;;;;4980675;28;20448;-83